Time;durP1;ratioP1;P1;durP2;ratioP2;P2;SDS_P1;SDS_P2;PMS_P1;PMS_P2;Temp;Humidity;BMP_temperature;BMP_pressure;BME280_temperature;BME280_humidity;BME280_pressure;Samples;Min_cycle;Max_cycle;Signal;HPM_P1;HPM_P2
2022/11/08 00:14:08;;;;;;;701.77;634.47;;;;;;;;;;4912623;28;20444;-76
2022/11/08 00:16:34;;;;;;;698.30;631.20;;;;;;;;;;4914586;28;20691;-76
2022/11/08 00:19:00;;;;;;;708.90;641.45;;;;;;;;;;4917189;28;20463;-76
2022/11/08 00:21:26;;;;;;;700.10;632.92;;;;;;;;;;4943662;28;20443;-76
2022/11/08 00:23:52;;;;;;;710.67;643.25;;;;;;;;;;4933340;28;20428;-76
2022/11/08 00:26:18;;;;;;;700.20;633.10;;;;;;;;;;4952154;28;20716;-76
2022/11/08 00:28:44;;;;;;;702.35;634.97;;;;;;;;;;4947732;28;20470;-76
2022/11/08 00:31:10;;;;;;;703.97;636.58;;;;;;;;;;4928953;28;20448;-76
2022/11/08 00:33:36;;;;;;;703.67;636.33;;;;;;;;;;4944251;28;20428;-76
2022/11/08 00:36:03;;;;;;;701.63;634.53;;;;;;;;;;4927019;28;20964;-76
2022/11/08 00:38:29;;;;;;;702.60;635.38;;;;;;;;;;4927455;28;21028;-76
2022/11/08 00:40:55;;;;;;;700.90;633.78;;;;;;;;;;4926932;28;20432;-75
2022/11/08 00:43:21;;;;;;;706.45;639.30;;;;;;;;;;4927737;28;20779;-75
2022/11/08 00:45:47;;;;;;;708.10;640.60;;;;;;;;;;4925437;28;20444;-75
2022/11/08 00:48:13;;;;;;;708.72;641.25;;;;;;;;;;4924317;28;20489;-76
2022/11/08 00:50:40;;;;;;;715.67;648.28;;;;;;;;;;4942250;28;20466;-76
2022/11/08 00:53:06;;;;;;;705.25;637.85;;;;;;;;;;4944903;28;20440;-76
2022/11/08 00:55:32;;;;;;;707.45;639.95;;;;;;;;;;4945682;28;20465;-76
2022/11/08 00:57:58;;;;;;;705.00;637.70;;;;;;;;;;4940807;28;20506;-76
2022/11/08 01:00:24;;;;;;;705.75;638.35;;;;;;;;;;4923933;28;20835;-76
2022/11/08 01:03:17;;;;;;;707.40;639.90;;;;;;;;;;4940040;28;20436;-75
2022/11/08 01:05:39;;;;;;;704.28;636.88;;;;;;;;;;4942743;28;20436;-76
2022/11/08 01:08:06;;;;;;;701.65;634.35;;;;;;;;;;4942863;28;20447;-76
2022/11/08 01:10:32;;;;;;;704.28;637.05;;;;;;;;;;4942974;28;21015;-76
2022/11/08 01:12:58;;;;;;;702.90;635.50;;;;;;;;;;4926337;28;20862;-76
2022/11/08 01:15:24;;;;;;;704.83;637.60;;;;;;;;;;4944901;28;21000;-76
2022/11/08 01:17:50;;;;;;;701.78;634.47;;;;;;;;;;4926756;28;20946;-76
2022/11/08 01:20:16;;;;;;;699.92;632.83;;;;;;;;;;4926987;28;20432;-77
2022/11/08 01:22:42;;;;;;;703.88;637.05;;;;;;;;;;4928035;28;20519;-77
2022/11/08 01:25:08;;;;;;;704.63;637.60;;;;;;;;;;4958921;28;20430;-77
2022/11/08 01:27:34;;;;;;;699.25;632.33;;;;;;;;;;4926768;28;20514;-76
2022/11/08 01:30:00;;;;;;;694.75;627.88;;;;;;;;;;4926049;28;20590;-77
2022/11/08 01:32:26;;;;;;;699.35;632.60;;;;;;;;;;4940917;28;20610;-77
2022/11/08 01:34:52;;;;;;;698.33;631.58;;;;;;;;;;4925894;28;20432;-77
2022/11/08 01:37:18;;;;;;;693.25;626.45;;;;;;;;;;4909963;28;20446;-80
2022/11/08 01:39:44;;;;;;;695.22;628.25;;;;;;;;;;4924960;28;20792;-79
2022/11/08 01:42:10;;;;;;;695.90;628.85;;;;;;;;;;4928613;28;20981;-76
2022/11/08 01:44:56;;;;;;;692.80;625.92;;;;;;;;;;4931156;28;20774;-77
2022/11/08 01:47:22;;;;;;;689.92;623.72;;;;;;;;;;4931536;28;20436;-77
2022/11/08 01:49:49;;;;;;;691.30;624.50;;;;;;;;;;4933447;28;20770;-77
2022/11/08 01:52:18;;;;;;;687.38;620.58;;;;;;;;;;4949569;28;20468;-78
2022/11/08 01:54:51;;;;;;;693.60;626.70;;;;;;;;;;4932880;28;20435;-77
2022/11/08 01:57:23;;;;;;;681.45;615.03;;;;;;;;;;4932781;28;21899;-77
2022/11/08 01:59:50;;;;;;;690.53;623.63;;;;;;;;;;4931534;28;20436;-77
2022/11/08 02:02:17;;;;;;;686.08;619.58;;;;;;;;;;4951148;28;20428;-76
2022/11/08 02:04:43;;;;;;;685.63;618.92;;;;;;;;;;4931768;28;20452;-77
2022/11/08 02:07:11;;;;;;;686.15;619.80;;;;;;;;;;4949075;28;20859;-77
2022/11/08 02:09:38;;;;;;;681.75;615.20;;;;;;;;;;4929333;28;21042;-77
2022/11/08 02:12:05;;;;;;;681.60;615.08;;;;;;;;;;4931254;28;20547;-77
2022/11/08 02:14:31;;;;;;;682.80;616.10;;;;;;;;;;4929845;28;20443;-76
2022/11/08 02:16:57;;;;;;;682.13;615.53;;;;;;;;;;4929726;28;20445;-77
2022/11/08 02:19:35;;;;;;;681.03;614.42;;;;;;;;;;4912895;28;21839;-77
2022/11/08 02:22:03;;;;;;;678.80;612.10;;;;;;;;;;4926528;28;20552;-76
2022/11/08 02:24:29;;;;;;;676.65;610.15;;;;;;;;;;4927703;28;20424;-77
2022/11/08 02:26:55;;;;;;;682.10;615.45;;;;;;;;;;4925765;28;20433;-76
2022/11/08 02:29:29;;;;;;;694.40;628.50;;;;;;;;;;4928848;28;20834;-77
2022/11/08 02:31:55;;;;;;;684.13;617.33;;;;;;;;;;4931390;28;20527;-76
2022/11/08 02:34:36;;;;;;;678.60;612.10;;;;;;;;;;4928715;28;20428;-77
2022/11/08 02:37:02;;;;;;;677.15;610.58;;;;;;;;;;4931763;28;20587;-76
2022/11/08 02:39:29;;;;;;;680.33;613.60;;;;;;;;;;4940361;28;20463;-77
2022/11/08 02:41:55;;;;;;;673.95;607.65;;;;;;;;;;4931709;28;20435;-77
2022/11/08 02:44:21;;;;;;;671.47;605.15;;;;;;;;;;4931218;28;20851;-77
2022/11/08 02:46:47;;;;;;;670.17;603.70;;;;;;;;;;4929699;28;21392;-76
2022/11/08 02:49:13;;;;;;;666.17;599.83;;;;;;;;;;4929565;28;21151;-77
2022/11/08 02:51:39;;;;;;;666.50;600.30;;;;;;;;;;4930380;28;20440;-77
2022/11/08 02:54:05;;;;;;;669.30;602.80;;;;;;;;;;4927974;28;20445;-78
2022/11/08 02:56:31;;;;;;;672.58;606.13;;;;;;;;;;4928620;28;20921;-77
2022/11/08 02:58:57;;;;;;;662.80;596.60;;;;;;;;;;4944959;28;20427;-77
2022/11/08 03:01:23;;;;;;;674.70;608.08;;;;;;;;;;4931236;28;21122;-76
2022/11/08 03:03:49;;;;;;;661.72;595.58;;;;;;;;;;4931079;28;20432;-76
2022/11/08 03:06:15;;;;;;;661.35;595.15;;;;;;;;;;4929492;28;20473;-77
2022/11/08 03:08:41;;;;;;;669.13;602.53;;;;;;;;;;4950999;28;20891;-77
2022/11/08 03:11:07;;;;;;;666.22;599.85;;;;;;;;;;4927100;28;20445;-76
2022/11/08 03:13:33;;;;;;;667.80;601.28;;;;;;;;;;4928459;28;20432;-77
2022/11/08 03:16:04;;;;;;;665.00;598.67;;;;;;;;;;4930424;28;20555;-77
2022/11/08 03:18:30;;;;;;;671.20;605.65;;;;;;;;;;4930316;28;20529;-76
2022/11/08 03:20:56;;;;;;;661.07;594.77;;;;;;;;;;4946342;28;20502;-76
2022/11/08 03:23:22;;;;;;;654.80;588.67;;;;;;;;;;4928969;28;20426;-77
2022/11/08 03:25:48;;;;;;;651.85;585.85;;;;;;;;;;4929262;28;20835;-77
2022/11/08 03:28:14;;;;;;;659.88;594.03;;;;;;;;;;4930873;28;20499;-76
2022/11/08 03:30:40;;;;;;;648.72;582.72;;;;;;;;;;4929966;28;20671;-77
2022/11/08 03:33:06;;;;;;;648.63;582.72;;;;;;;;;;4948021;28;20427;-77
2022/11/08 03:35:32;;;;;;;645.13;579.33;;;;;;;;;;4928822;28;20981;-77
2022/11/08 03:37:58;;;;;;;644.13;578.28;;;;;;;;;;4928590;28;20447;-77
2022/11/08 03:40:25;;;;;;;651.30;585.20;;;;;;;;;;4925066;28;20428;-77
2022/11/08 03:42:51;;;;;;;645.97;580.08;;;;;;;;;;4930173;28;20466;-76
2022/11/08 03:45:17;;;;;;;642.05;576.25;;;;;;;;;;4929722;28;20543;-76
2022/11/08 03:47:44;;;;;;;647.92;581.60;;;;;;;;;;4929532;28;20455;-76
2022/11/08 03:50:10;;;;;;;646.53;580.75;;;;;;;;;;4931680;28;20523;-77
2022/11/08 03:52:39;;;;;;;645.20;579.10;;;;;;;;;;4925087;28;20432;-77
2022/11/08 03:55:06;;;;;;;638.40;572.65;;;;;;;;;;4930137;28;20922;-77
2022/11/08 03:57:32;;;;;;;648.40;582.42;;;;;;;;;;4930073;28;20758;-77
2022/11/08 03:59:58;;;;;;;642.22;576.33;;;;;;;;;;4931355;28;20436;-77
2022/11/08 04:02:24;;;;;;;639.47;573.85;;;;;;;;;;4932542;28;20934;-77
2022/11/08 04:04:50;;;;;;;639.92;574.00;;;;;;;;;;4929455;28;20428;-76
2022/11/08 04:07:16;;;;;;;636.95;571.42;;;;;;;;;;4947044;28;20431;-76
2022/11/08 04:09:42;;;;;;;634.47;568.88;;;;;;;;;;4935174;28;20550;-77
2022/11/08 04:23:07;;;;;;;631.90;566.25;;;;;;;;;;4950846;28;20439;-76
2022/11/08 04:25:33;;;;;;;632.17;566.58;;;;;;;;;;4934198;28;20490;-76
2022/11/08 04:27:59;;;;;;;644.72;580.67;;;;;;;;;;4932138;28;20474;-76
2022/11/08 04:30:27;;;;;;;631.50;566.07;;;;;;;;;;4948439;28;20538;-77
2022/11/08 04:32:53;;;;;;;631.40;565.97;;;;;;;;;;4949562;28;20435;-76
2022/11/08 04:35:19;;;;;;;635.63;569.72;;;;;;;;;;4945579;28;20510;-77
2022/11/08 04:37:45;;;;;;;636.58;571.03;;;;;;;;;;4926600;28;20432;-77
2022/11/08 04:40:11;;;;;;;636.78;570.97;;;;;;;;;;4926481;28;20446;-77
2022/11/08 04:42:37;;;;;;;635.27;569.57;;;;;;;;;;4927446;28;20572;-77
2022/11/08 04:45:03;;;;;;;626.35;560.85;;;;;;;;;;4928182;28;20471;-77
2022/11/08 04:47:29;;;;;;;631.55;565.80;;;;;;;;;;4926890;28;20447;-77
2022/11/08 04:49:56;;;;;;;633.28;567.67;;;;;;;;;;4930883;28;20448;-77
2022/11/08 04:52:22;;;;;;;629.17;563.55;;;;;;;;;;4930635;28;20443;-77
2022/11/08 04:54:48;;;;;;;630.22;564.63;;;;;;;;;;4914463;28;20516;-77
2022/11/08 04:57:15;;;;;;;624.00;558.78;;;;;;;;;;4930322;28;21498;-77
2022/11/08 04:59:41;;;;;;;626.95;561.55;;;;;;;;;;4928043;28;20440;-77
2022/11/08 05:02:07;;;;;;;624.05;558.65;;;;;;;;;;4930965;28;20440;-76
2022/11/08 05:04:33;;;;;;;626.53;561.13;;;;;;;;;;4932023;28;20455;-77
2022/11/08 05:06:59;;;;;;;629.60;564.20;;;;;;;;;;4932939;28;20448;-76
2022/11/08 05:09:25;;;;;;;629.42;563.92;;;;;;;;;;4930387;28;20463;-77
2022/11/08 05:11:51;;;;;;;630.17;564.58;;;;;;;;;;4931953;28;20985;-76
2022/11/08 05:14:17;;;;;;;628.77;563.27;;;;;;;;;;4932034;28;20443;-77
2022/11/08 05:16:43;;;;;;;621.72;556.50;;;;;;;;;;4932594;28;20436;-77
2022/11/08 05:19:09;;;;;;;627.17;561.65;;;;;;;;;;4932241;28;20475;-76
2022/11/08 05:24:24;;;;;;;618.97;554.35;;;;;;;;;;4922108;28;20439;-77
2022/11/08 05:26:51;;;;;;;619.27;554.57;;;;;;;;;;4951788;28;21270;-77
2022/11/08 05:29:17;;;;;;;617.90;552.80;;;;;;;;;;4933089;28;21490;-77
2022/11/08 05:31:43;;;;;;;619.03;553.85;;;;;;;;;;4933037;28;20462;-77
2022/11/08 05:34:09;;;;;;;617.08;552.08;;;;;;;;;;4947365;28;20440;-77
2022/11/08 05:36:35;;;;;;;616.30;551.20;;;;;;;;;;4933349;28;20447;-77
2022/11/08 05:39:01;;;;;;;619.10;553.97;;;;;;;;;;4932143;28;20566;-76
2022/11/08 05:41:27;;;;;;;617.33;552.22;;;;;;;;;;4948129;28;20784;-77
2022/11/08 05:43:54;;;;;;;619.83;554.63;;;;;;;;;;4953572;28;20424;-76
2022/11/08 05:46:20;;;;;;;623.17;557.88;;;;;;;;;;4952244;28;20503;-76
2022/11/08 05:48:47;;;;;;;618.30;553.25;;;;;;;;;;4944693;28;20442;-76
2022/11/08 05:51:13;;;;;;;618.92;553.72;;;;;;;;;;4945116;28;20436;-77
2022/11/08 05:53:40;;;;;;;618.47;553.38;;;;;;;;;;4916540;28;21868;-77
2022/11/08 05:56:07;;;;;;;615.80;550.70;;;;;;;;;;4929551;28;20546;-77
2022/11/08 05:58:33;;;;;;;615.40;550.53;;;;;;;;;;4932336;28;20580;-77
2022/11/08 06:01:00;;;;;;;617.55;552.35;;;;;;;;;;4943874;28;20447;-76
2022/11/08 06:03:27;;;;;;;616.65;551.55;;;;;;;;;;4945653;28;20427;-77
2022/11/08 06:05:53;;;;;;;615.97;550.97;;;;;;;;;;4931046;28;20502;-76
2022/11/08 06:08:19;;;;;;;615.25;550.25;;;;;;;;;;4945195;28;20538;-77
2022/11/08 06:10:45;;;;;;;617.50;552.30;;;;;;;;;;4912817;29;20448;-76
2022/11/08 06:13:11;;;;;;;612.15;547.15;;;;;;;;;;4931558;28;21058;-76
2022/11/08 06:15:37;;;;;;;615.25;550.17;;;;;;;;;;4931504;28;20432;-76
2022/11/08 06:18:04;;;;;;;613.28;548.38;;;;;;;;;;4948407;28;20444;-77
2022/11/08 06:20:30;;;;;;;614.75;549.65;;;;;;;;;;4930310;28;20918;-77
2022/11/08 06:22:56;;;;;;;611.13;546.17;;;;;;;;;;4928919;28;20567;-77
2022/11/08 06:25:22;;;;;;;614.92;549.83;;;;;;;;;;4931331;28;20435;-77
2022/11/08 06:27:48;;;;;;;615.28;550.45;;;;;;;;;;4931696;28;21298;-76
2022/11/08 06:30:15;;;;;;;614.25;549.17;;;;;;;;;;4945866;28;20432;-77
2022/11/08 06:32:41;;;;;;;618.00;552.80;;;;;;;;;;4931317;28;20934;-77
2022/11/08 06:35:07;;;;;;;616.22;551.03;;;;;;;;;;4952541;28;20436;-77
2022/11/08 06:37:33;;;;;;;618.47;553.17;;;;;;;;;;4932677;28;20862;-77
2022/11/08 06:39:59;;;;;;;613.90;548.97;;;;;;;;;;4930915;28;20428;-77
2022/11/08 06:42:26;;;;;;;620.00;554.97;;;;;;;;;;4930262;28;20452;-76
2022/11/08 06:44:52;;;;;;;615.85;550.67;;;;;;;;;;4947287;28;20474;-77
2022/11/08 06:47:18;;;;;;;613.28;548.28;;;;;;;;;;4950930;28;20570;-77
2022/11/08 06:49:44;;;;;;;619.90;554.70;;;;;;;;;;4946266;28;20451;-76
2022/11/08 06:52:10;;;;;;;619.33;554.22;;;;;;;;;;4930127;28;20440;-78
2022/11/08 06:54:36;;;;;;;618.88;553.60;;;;;;;;;;4951324;28;20490;-77
2022/11/08 06:57:02;;;;;;;618.43;553.13;;;;;;;;;;4928353;28;20822;-77
2022/11/08 06:59:28;;;;;;;618.05;552.80;;;;;;;;;;4931882;28;20854;-77
2022/11/08 07:01:54;;;;;;;621.92;556.83;;;;;;;;;;4950838;28;21139;-76
2022/11/08 07:04:20;;;;;;;621.00;556.17;;;;;;;;;;4931102;28;20435;-77
2022/11/08 07:06:47;;;;;;;623.33;558.15;;;;;;;;;;4945819;28;20949;-77
2022/11/08 07:09:13;;;;;;;622.08;557.22;;;;;;;;;;4930601;28;20431;-76
2022/11/08 07:11:39;;;;;;;623.80;559.10;;;;;;;;;;4951475;28;20474;-76
2022/11/08 07:14:05;;;;;;;629.28;564.10;;;;;;;;;;4934417;28;20466;-77
2022/11/08 07:16:31;;;;;;;626.17;561.30;;;;;;;;;;4922662;28;20796;-77
2022/11/08 07:18:57;;;;;;;629.85;564.55;;;;;;;;;;4928910;28;20437;-77
2022/11/08 07:21:23;;;;;;;628.83;563.83;;;;;;;;;;4932604;28;20965;-77
2022/11/08 07:23:49;;;;;;;622.95;557.95;;;;;;;;;;4928762;28;20428;-77
2022/11/08 07:26:15;;;;;;;628.33;563.08;;;;;;;;;;4929575;28;21088;-77
2022/11/08 07:28:41;;;;;;;633.25;568.05;;;;;;;;;;4914484;28;20469;-76
2022/11/08 07:31:08;;;;;;;631.10;565.90;;;;;;;;;;4915898;28;20556;-76
2022/11/08 07:33:35;;;;;;;634.42;569.33;;;;;;;;;;4925521;29;20457;-77
2022/11/08 07:36:01;;;;;;;632.30;567.03;;;;;;;;;;4934941;28;20551;-77
2022/11/08 07:38:27;;;;;;;627.80;562.50;;;;;;;;;;4924742;29;20457;-76
2022/11/08 07:40:57;;;;;;;631.00;565.63;;;;;;;;;;4930607;29;20445;-77
2022/11/08 07:43:24;;;;;;;638.03;572.47;;;;;;;;;;4956737;28;20431;-77
2022/11/08 07:45:57;;;;;;;642.55;577.13;;;;;;;;;;4948575;28;20982;-77
2022/11/08 07:48:24;;;;;;;639.90;574.30;;;;;;;;;;4933004;28;20534;-77
2022/11/08 07:50:50;;;;;;;641.38;575.78;;;;;;;;;;4950354;28;20428;-77
2022/11/08 07:53:16;;;;;;;640.95;575.33;;;;;;;;;;4956116;28;20511;-77
2022/11/08 07:55:44;;;;;;;645.13;579.33;;;;;;;;;;4934106;28;20514;-77
2022/11/08 07:58:10;;;;;;;647.42;581.63;;;;;;;;;;4935128;28;21386;-77
2022/11/08 08:00:38;;;;;;;646.30;580.65;;;;;;;;;;4934349;28;20519;-77
2022/11/08 08:03:05;;;;;;;652.75;586.78;;;;;;;;;;4943680;28;20526;-76
2022/11/08 08:05:33;;;;;;;649.78;583.78;;;;;;;;;;4946354;28;20461;-76
2022/11/08 08:08:02;;;;;;;647.95;582.15;;;;;;;;;;4912712;29;20445;-77
2022/11/08 08:10:31;;;;;;;650.03;584.13;;;;;;;;;;4912925;29;20837;-77
2022/11/08 08:12:58;;;;;;;654.90;588.90;;;;;;;;;;4911822;29;20439;-77
2022/11/08 08:15:24;;;;;;;657.72;591.58;;;;;;;;;;4911220;29;20499;-77
2022/11/08 08:17:50;;;;;;;660.28;594.08;;;;;;;;;;4911894;29;20504;-77
2022/11/08 08:20:17;;;;;;;667.00;600.67;;;;;;;;;;4906525;29;20534;-77
2022/11/08 08:22:47;;;;;;;660.95;594.65;;;;;;;;;;4909034;29;20441;-77
2022/11/08 08:25:14;;;;;;;663.85;597.55;;;;;;;;;;4916027;29;20441;-77
2022/11/08 08:27:40;;;;;;;655.60;589.60;;;;;;;;;;4913816;29;20484;-77
2022/11/08 08:30:06;;;;;;;661.03;594.88;;;;;;;;;;4928170;29;20572;-76
2022/11/08 08:32:33;;;;;;;661.97;595.97;;;;;;;;;;4913783;29;20433;-78
2022/11/08 08:34:59;;;;;;;664.75;598.42;;;;;;;;;;4912894;29;20757;-78
2022/11/08 08:37:25;;;;;;;667.22;600.72;;;;;;;;;;4909805;29;20450;-77
2022/11/08 08:39:51;;;;;;;670.40;603.90;;;;;;;;;;4912566;29;20437;-77
2022/11/08 08:42:17;;;;;;;681.03;614.22;;;;;;;;;;4911243;29;21054;-77
2022/11/08 08:44:43;;;;;;;684.13;617.38;;;;;;;;;;4911150;29;20525;-77
2022/11/08 08:47:09;;;;;;;681.72;615.03;;;;;;;;;;4926479;29;20434;-78
2022/11/08 08:49:35;;;;;;;687.45;620.65;;;;;;;;;;4914626;29;20846;-78
2022/11/08 08:52:01;;;;;;;687.38;620.47;;;;;;;;;;4909348;29;20442;-78
2022/11/08 08:54:27;;;;;;;696.70;629.60;;;;;;;;;;4894503;29;20450;-77
2022/11/08 08:56:53;;;;;;;697.78;630.60;;;;;;;;;;4911039;29;20432;-77
2022/11/08 08:59:19;;;;;;;700.30;633.10;;;;;;;;;;4926873;29;20627;-77
2022/11/08 09:01:45;;;;;;;710.77;643.13;;;;;;;;;;4910344;29;21007;-77
2022/11/08 09:04:11;;;;;;;712.35;645.17;;;;;;;;;;4908905;29;20441;-77
2022/11/08 09:06:37;;;;;;;715.33;647.73;;;;;;;;;;4921406;28;21442;-77
2022/11/08 09:09:03;;;;;;;717.60;650.30;;;;;;;;;;4918729;28;20785;-77
2022/11/08 09:11:29;;;;;;;722.13;654.33;;;;;;;;;;4915303;28;20513;-78
2022/11/08 09:13:55;;;;;;;720.17;652.38;;;;;;;;;;4934851;28;20432;-77
2022/11/08 09:16:21;;;;;;;722.42;654.45;;;;;;;;;;4915095;28;20534;-77
2022/11/08 09:18:47;;;;;;;722.20;654.30;;;;;;;;;;4917354;28;20446;-76
2022/11/08 09:21:13;;;;;;;716.70;649.08;;;;;;;;;;4917981;28;20532;-77
2022/11/08 09:23:41;;;;;;;717.75;649.95;;;;;;;;;;4916193;28;21019;-76
2022/11/08 09:26:07;;;;;;;721.80;654.00;;;;;;;;;;4914832;28;20445;-78
2022/11/08 09:28:34;;;;;;;716.50;648.97;;;;;;;;;;4936260;28;20521;-77
2022/11/08 09:31:05;;;;;;;722.25;654.35;;;;;;;;;;4937266;28;20784;-77
2022/11/08 09:33:31;;;;;;;721.33;653.50;;;;;;;;;;4929446;28;20432;-77
2022/11/08 09:35:59;;;;;;;723.57;655.57;;;;;;;;;;4915394;28;20450;-77
2022/11/08 09:38:25;;;;;;;727.33;659.22;;;;;;;;;;4911633;28;20939;-77
2022/11/08 09:41:10;;;;;;;723.40;655.60;;;;;;;;;;4912168;28;20572;-77
2022/11/08 09:43:39;;;;;;;732.17;663.90;;;;;;;;;;4904914;28;20567;-77
2022/11/08 09:46:08;;;;;;;731.85;663.67;;;;;;;;;;4911253;28;20582;-77
2022/11/08 09:48:36;;;;;;;732.50;664.30;;;;;;;;;;4923076;28;20444;-78
2022/11/08 09:51:07;;;;;;;737.27;668.97;;;;;;;;;;4910582;28;20441;-77
2022/11/08 09:53:59;;;;;;;734.78;666.65;;;;;;;;;;4913238;28;22196;-78
2022/11/08 09:56:36;;;;;;;740.05;671.55;;;;;;;;;;4908891;28;20634;-77
2022/11/08 09:59:04;;;;;;;739.90;671.63;;;;;;;;;;4911031;28;20449;-77
2022/11/08 10:01:34;;;;;;;746.35;678.45;;;;;;;;;;4904314;28;21215;-77
2022/11/08 10:04:10;;;;;;;743.55;675.35;;;;;;;;;;4912358;28;20488;-76
2022/11/08 10:06:36;;;;;;;745.45;677.88;;;;;;;;;;4926237;28;20510;-76
2022/11/08 10:09:10;;;;;;;741.25;673.10;;;;;;;;;;4929858;28;20523;-74
2022/11/08 10:11:36;;;;;;;746.10;677.70;;;;;;;;;;4924378;28;20431;-76
2022/11/08 10:14:17;;;;;;;741.50;673.20;;;;;;;;;;4924311;28;20463;-76
2022/11/08 10:17:02;;;;;;;752.53;684.03;;;;;;;;;;4941668;28;20425;-75
2022/11/08 10:20:04;;;;;;;747.27;679.07;;;;;;;;;;4944349;28;20505;-76
2022/11/08 10:22:33;;;;;;;745.50;676.95;;;;;;;;;;4868505;29;20511;-76
2022/11/08 10:25:05;;;;;;;749.95;681.55;;;;;;;;;;4916370;28;20447;-75
2022/11/08 10:27:35;;;;;;;753.70;685.67;;;;;;;;;;4929280;28;20570;-75
2022/11/08 10:30:03;;;;;;;748.13;679.50;;;;;;;;;;4927042;28;20467;-75
2022/11/08 10:32:30;;;;;;;751.97;683.13;;;;;;;;;;4944855;28;20456;-75
2022/11/08 10:35:12;;;;;;;752.45;683.78;;;;;;;;;;4930979;28;20502;-75
2022/11/08 10:37:40;;;;;;;757.30;688.35;;;;;;;;;;4945831;28;20446;-76
2022/11/08 10:40:25;;;;;;;760.80;692.28;;;;;;;;;;4925922;28;20424;-75
2022/11/08 10:42:55;;;;;;;749.95;681.30;;;;;;;;;;4926757;28;20436;-76
2022/11/08 10:45:22;;;;;;;754.42;685.58;;;;;;;;;;4941358;28;20436;-75
2022/11/08 10:47:48;;;;;;;750.72;682.42;;;;;;;;;;4941264;28;20440;-75
2022/11/08 10:50:19;;;;;;;749.28;680.78;;;;;;;;;;4925618;28;21191;-75
2022/11/08 10:53:03;;;;;;;748.13;679.53;;;;;;;;;;4927393;28;20429;-76
2022/11/08 10:55:37;;;;;;;742.15;673.83;;;;;;;;;;4940392;28;21013;-76
2022/11/08 10:58:04;;;;;;;744.45;675.85;;;;;;;;;;4926237;28;21674;-77
2022/11/08 11:00:33;;;;;;;746.97;678.58;;;;;;;;;;4931309;28;20456;-77
2022/11/08 11:03:01;;;;;;;744.58;676.08;;;;;;;;;;4930895;28;20436;-76
2022/11/08 11:05:32;;;;;;;745.30;677.05;;;;;;;;;;4936610;28;20443;-75
2022/11/08 11:08:07;;;;;;;741.72;673.35;;;;;;;;;;4906674;29;20492;-74
2022/11/08 11:10:35;;;;;;;745.33;676.92;;;;;;;;;;4910846;29;21709;-76
2022/11/08 11:13:03;;;;;;;747.80;679.13;;;;;;;;;;4909972;29;20437;-76
2022/11/08 11:15:49;;;;;;;747.22;678.63;;;;;;;;;;4915317;29;20442;-75
2022/11/08 11:18:18;;;;;;;744.72;676.35;;;;;;;;;;4896878;29;20445;-75
2022/11/08 11:20:57;;;;;;;748.58;680.00;;;;;;;;;;4912538;29;21027;-76
2022/11/08 11:23:23;;;;;;;747.75;679.33;;;;;;;;;;4929366;29;20452;-75
2022/11/08 11:25:51;;;;;;;751.83;683.22;;;;;;;;;;4897732;29;20469;-75
2022/11/08 11:28:17;;;;;;;749.37;680.77;;;;;;;;;;4912489;29;20449;-75
2022/11/08 11:30:46;;;;;;;752.60;683.90;;;;;;;;;;4930042;29;21190;-74
2022/11/08 11:33:22;;;;;;;755.17;686.47;;;;;;;;;;4913520;29;20528;-75
2022/11/08 11:35:59;;;;;;;763.80;695.20;;;;;;;;;;4911131;29;20433;-75
2022/11/08 11:38:44;;;;;;;763.15;694.25;;;;;;;;;;4929251;29;21005;-75
2022/11/08 11:41:18;;;;;;;772.20;702.88;;;;;;;;;;4909512;29;20441;-75
2022/11/08 11:43:54;;;;;;;770.67;701.50;;;;;;;;;;4930143;29;20441;-75
2022/11/08 11:46:22;;;;;;;768.72;699.72;;;;;;;;;;4911254;29;20560;-75
2022/11/08 11:49:01;;;;;;;776.55;707.25;;;;;;;;;;4927384;29;20457;-75
2022/11/08 11:51:29;;;;;;;769.75;700.58;;;;;;;;;;4932834;29;20443;-76
2022/11/08 11:53:55;;;;;;;773.13;703.83;;;;;;;;;;4931971;29;20429;-75
2022/11/08 11:56:36;;;;;;;775.60;706.30;;;;;;;;;;4912978;29;20429;-75
2022/11/08 11:59:21;;;;;;;776.83;707.35;;;;;;;;;;4907459;29;20549;-76
2022/11/08 12:02:03;;;;;;;781.40;711.72;;;;;;;;;;4912195;29;20489;-76
2022/11/08 12:04:41;;;;;;;784.08;714.47;;;;;;;;;;4909161;29;25102;-77
2022/11/08 12:07:16;;;;;;;784.25;714.72;;;;;;;;;;4927235;29;20437;-76
2022/11/08 12:09:52;;;;;;;782.92;713.22;;;;;;;;;;4927649;28;20471;-75
2022/11/08 12:12:45;;;;;;;781.00;711.45;;;;;;;;;;4930951;29;20431;-76
2022/11/08 12:15:22;;;;;;;782.95;713.25;;;;;;;;;;4927923;28;20440;-76
2022/11/08 12:17:49;;;;;;;791.85;721.95;;;;;;;;;;4929741;28;20453;-76
2022/11/08 12:20:27;;;;;;;791.05;721.20;;;;;;;;;;4939284;28;20442;-75
2022/11/08 12:23:08;;;;;;;789.20;719.33;;;;;;;;;;4950566;28;20578;-75
2022/11/08 12:25:34;;;;;;;790.35;720.40;;;;;;;;;;4925531;29;20482;-75
2022/11/08 12:28:27;;;;;;;789.22;719.50;;;;;;;;;;4939499;28;20445;-75
2022/11/08 12:31:09;;;;;;;788.20;718.42;;;;;;;;;;4946574;28;20425;-75
2022/11/08 12:33:46;;;;;;;793.78;723.85;;;;;;;;;;4925604;29;20450;-76
2022/11/08 12:36:26;;;;;;;791.20;721.50;;;;;;;;;;4925936;29;25154;-75
2022/11/08 12:39:07;;;;;;;793.72;723.75;;;;;;;;;;4926654;28;20970;-75
2022/11/08 12:41:59;;;;;;;789.75;720.08;;;;;;;;;;4930512;28;25156;-75
2022/11/08 12:44:43;;;;;;;795.80;725.72;;;;;;;;;;4925896;29;25144;-76
2022/11/08 12:47:15;;;;;;;794.88;724.88;;;;;;;;;;4924930;29;25205;-75
2022/11/08 12:49:55;;;;;;;796.55;726.65;;;;;;;;;;4945270;28;20453;-75
2022/11/08 12:52:40;;;;;;;800.63;730.72;;;;;;;;;;4924712;29;25130;-75
2022/11/08 12:55:09;;;;;;;801.22;731.22;;;;;;;;;;4907493;29;20433;-75
2022/11/08 12:57:35;;;;;;;799.75;729.80;;;;;;;;;;4908282;29;20556;-75
2022/11/08 13:00:04;;;;;;;802.17;732.40;;;;;;;;;;4907840;29;22191;-75
2022/11/08 13:02:32;;;;;;;794.63;725.13;;;;;;;;;;4891162;29;20456;-76
2022/11/08 13:05:17;;;;;;;794.50;724.70;;;;;;;;;;4904976;28;20454;-75
2022/11/08 13:07:43;;;;;;;799.73;729.73;;;;;;;;;;4941348;28;25093;-75
2022/11/08 13:10:18;;;;;;;802.78;732.67;;;;;;;;;;4927469;28;21009;-76
2022/11/08 13:13:07;;;;;;;804.95;734.95;;;;;;;;;;4925986;28;25230;-76
2022/11/08 13:15:33;;;;;;;802.95;732.85;;;;;;;;;;4941637;28;25104;-75
2022/11/08 13:18:05;;;;;;;803.58;733.28;;;;;;;;;;4925619;28;20428;-76
2022/11/08 13:20:38;;;;;;;801.28;731.28;;;;;;;;;;4927006;28;20915;-76
2022/11/08 13:23:08;;;;;;;800.80;730.70;;;;;;;;;;4931637;28;20443;-77
2022/11/08 13:25:35;;;;;;;799.55;729.47;;;;;;;;;;4927073;28;20432;-75
2022/11/08 13:28:01;;;;;;;797.22;727.22;;;;;;;;;;4946811;28;20546;-75
2022/11/08 13:30:33;;;;;;;798.65;728.55;;;;;;;;;;4922178;28;20443;-75
2022/11/08 13:33:08;;;;;;;797.05;727.20;;;;;;;;;;4915856;28;20905;-75
2022/11/08 13:35:47;;;;;;;794.27;724.37;;;;;;;;;;4941274;28;20449;-75
2022/11/08 13:38:25;;;;;;;794.03;723.97;;;;;;;;;;4928612;28;21120;-75
2022/11/08 13:41:07;;;;;;;797.67;727.63;;;;;;;;;;4913312;28;25140;-75
2022/11/08 13:43:34;;;;;;;792.20;722.43;;;;;;;;;;4931523;28;20767;-75
2022/11/08 13:46:19;;;;;;;790.10;720.38;;;;;;;;;;4931164;28;20455;-75
2022/11/08 13:49:02;;;;;;;791.15;721.45;;;;;;;;;;4947217;28;20463;-75
2022/11/08 13:51:38;;;;;;;789.17;719.47;;;;;;;;;;4932159;28;20445;-75
2022/11/08 13:54:04;;;;;;;783.20;713.47;;;;;;;;;;4931555;28;20444;-75
2022/11/08 13:56:41;;;;;;;788.85;718.95;;;;;;;;;;4931712;28;20446;-74
2022/11/08 13:59:31;;;;;;;787.95;718.35;;;;;;;;;;4949947;28;20444;-78
2022/11/08 14:01:58;;;;;;;784.38;714.88;;;;;;;;;;4920497;28;20562;-75
2022/11/08 14:04:26;;;;;;;781.35;711.85;;;;;;;;;;4931296;28;20435;-76
2022/11/08 14:07:11;;;;;;;785.30;715.85;;;;;;;;;;4945533;28;20981;-78
2022/11/08 14:09:55;;;;;;;782.85;713.55;;;;;;;;;;4930266;28;21395;-76
2022/11/08 14:12:40;;;;;;;780.50;711.10;;;;;;;;;;4928448;28;20447;-75
2022/11/08 14:15:20;;;;;;;779.63;710.03;;;;;;;;;;4931674;28;21796;-75
2022/11/08 14:17:48;;;;;;;780.95;711.45;;;;;;;;;;4947542;28;20450;-75
2022/11/08 14:20:22;;;;;;;782.38;712.97;;;;;;;;;;4930050;28;20507;-75
2022/11/08 14:22:48;;;;;;;771.70;702.70;;;;;;;;;;4928494;28;20897;-75
2022/11/08 14:25:24;;;;;;;776.83;707.22;;;;;;;;;;4928316;28;20989;-74
2022/11/08 14:27:50;;;;;;;776.72;707.42;;;;;;;;;;4949822;28;25112;-74
2022/11/08 14:30:20;;;;;;;775.75;706.38;;;;;;;;;;4930615;28;20436;-75